createdAt,value
2019-04-05T00:00:09.585Z,26.50
2019-04-05T00:02:40.484Z,26.50
2019-04-05T00:05:11.870Z,26.70
2019-04-05T00:07:43.003Z,26.70
2019-04-05T00:10:14.367Z,26.80
2019-04-05T00:12:45.386Z,26.80
2019-04-05T00:15:16.898Z,26.90
2019-04-05T00:17:48.140Z,27.00
2019-04-05T00:20:19.049Z,27.00
2019-04-05T00:22:50.198Z,27.10
2019-04-05T00:25:21.155Z,27.20
2019-04-05T00:27:52.166Z,27.30
2019-04-05T00:30:23.517Z,27.30
2019-04-05T00:32:54.351Z,27.40
2019-04-05T00:35:25.115Z,27.50
2019-04-05T00:37:56.108Z,27.60
2019-04-05T00:40:27.057Z,27.70
2019-04-05T00:42:57.721Z,27.80
2019-04-05T00:45:29.050Z,27.80
2019-04-05T00:47:59.966Z,28.00
2019-04-05T00:50:31.019Z,28.10
2019-04-05T00:53:02.163Z,28.20
2019-04-05T00:55:33.145Z,28.30
2019-04-05T00:58:04.266Z,28.40
2019-04-05T01:00:35.505Z,28.60
2019-04-05T01:03:06.562Z,28.70
2019-04-05T01:05:37.440Z,28.80
2019-04-05T01:08:08.794Z,28.90
2019-04-05T01:10:39.752Z,29.00
2019-04-05T01:13:10.642Z,29.10
2019-04-05T01:15:41.910Z,29.20
2019-04-05T01:18:12.748Z,29.40
2019-04-05T01:20:44.800Z,29.50
2019-04-05T01:23:16.655Z,29.60
2019-04-05T01:25:48.909Z,29.70
2019-04-05T01:28:20.691Z,29.80
2019-04-05T01:30:52.012Z,29.90
2019-04-05T01:33:23.132Z,30.10
2019-04-05T01:35:54.353Z,30.20
2019-04-05T01:38:25.985Z,30.30
2019-04-05T01:40:58.806Z,30.40
2019-04-05T01:43:30.745Z,30.40
2019-04-05T01:46:01.836Z,30.60
2019-04-05T01:48:32.666Z,30.70
2019-04-05T01:51:04.094Z,30.80
2019-04-05T01:53:35.110Z,31.00
2019-04-05T01:56:06.180Z,31.00
2019-04-05T01:58:37.214Z,31.10
2019-04-05T02:01:08.122Z,31.30
2019-04-05T02:03:39.082Z,31.40
2019-04-05T02:06:10.185Z,31.40
2019-04-05T02:08:41.210Z,31.50
2019-04-05T02:11:12.014Z,31.70
2019-04-05T02:13:43.172Z,31.80
2019-04-05T02:16:14.216Z,31.90
2019-04-05T02:18:45.070Z,32.10
2019-04-05T02:21:16.462Z,32.20
2019-04-05T02:23:47.300Z,32.30
2019-04-05T02:26:18.278Z,32.40
2019-04-05T02:28:49.453Z,32.50
2019-04-05T02:31:20.499Z,32.60
2019-04-05T02:33:51.358Z,32.70
2019-04-05T02:36:22.963Z,32.80
2019-04-05T02:38:53.814Z,32.90
2019-04-05T02:41:27.302Z,33.00
2019-04-05T02:44:00.293Z,32.90
2019-04-05T02:46:33.448Z,33.10
2019-04-05T02:49:07.544Z,33.10
2019-04-05T02:51:40.200Z,33.20
2019-04-05T02:54:12.403Z,33.30
2019-04-05T02:56:43.793Z,33.50
2019-04-05T02:59:15.121Z,33.60
2019-04-05T03:01:46.996Z,33.80
2019-04-05T03:04:17.909Z,33.90
2019-04-05T03:06:51.139Z,34.10
2019-04-05T03:09:22.924Z,34.20
2019-04-05T03:11:54.804Z,34.20
2019-04-05T03:14:26.285Z,34.30
2019-04-05T03:16:58.475Z,34.40
2019-04-05T03:19:31.949Z,34.40
2019-04-05T03:22:05.535Z,34.50
2019-04-05T03:24:38.879Z,34.60
2019-04-05T03:27:12.210Z,34.70
2019-04-05T03:29:44.421Z,34.80
2019-04-05T03:32:15.941Z,34.90
2019-04-05T03:34:47.352Z,35.10
2019-04-05T03:37:18.680Z,35.20
2019-04-05T03:39:49.753Z,35.20
2019-04-05T03:42:21.376Z,35.20
2019-04-05T03:44:52.437Z,35.20
2019-04-05T03:47:23.376Z,35.20
2019-04-05T03:49:54.656Z,35.30
2019-04-05T03:52:26.047Z,35.40
2019-04-05T03:54:56.951Z,35.40
2019-04-05T03:57:28.422Z,35.60
2019-04-05T03:59:59.453Z,35.80
2019-04-05T04:02:30.473Z,35.90
2019-04-05T04:05:03.297Z,36.00
2019-04-05T04:07:34.314Z,36.00
2019-04-05T04:10:05.781Z,36.00
2019-04-05T04:12:37.175Z,35.90
2019-04-05T04:15:13.319Z,35.80
2019-04-05T04:17:43.783Z,35.70
2019-04-05T04:20:17.046Z,35.80
2019-04-05T04:22:48.611Z,35.80
2019-04-05T04:25:19.806Z,35.80
2019-04-05T04:27:51.207Z,35.90
2019-04-05T04:30:22.275Z,36.00
2019-04-05T04:32:53.340Z,36.10
2019-04-05T04:35:24.685Z,36.10
2019-04-05T04:37:56.595Z,36.10
2019-04-05T04:40:29.232Z,36.10
2019-04-05T04:43:00.463Z,36.20
2019-04-05T04:45:32.126Z,36.20
2019-04-05T04:48:04.547Z,36.30
2019-04-05T04:50:35.732Z,36.40
2019-04-05T04:53:07.092Z,36.50
2019-04-05T04:55:38.447Z,36.50
2019-04-05T04:58:09.470Z,36.60
2019-04-05T05:00:42.791Z,36.50
2019-04-05T05:03:13.826Z,36.60
2019-04-05T05:05:45.056Z,36.70
2019-04-05T05:08:16.268Z,36.80
2019-04-05T05:10:47.710Z,36.80
2019-04-05T05:13:18.822Z,36.80
2019-04-05T05:15:50.759Z,36.80
2019-04-05T05:18:21.884Z,36.80
2019-04-05T05:20:53.002Z,36.80
2019-04-05T05:23:24.310Z,36.90
2019-04-05T05:25:55.399Z,36.90
2019-04-05T05:28:26.839Z,37.00
2019-04-05T05:30:59.018Z,37.00
2019-04-05T05:33:30.076Z,37.10
2019-04-05T05:36:01.298Z,37.20
2019-04-05T05:38:32.757Z,37.40
2019-04-05T05:41:04.013Z,37.50
2019-04-05T05:43:34.977Z,37.70
2019-04-05T05:46:06.756Z,37.80
2019-04-05T05:48:37.656Z,37.90
2019-04-05T05:51:08.742Z,38.00
2019-04-05T05:53:40.065Z,37.90
2019-04-05T05:56:11.006Z,37.90
2019-04-05T05:58:41.843Z,37.80
2019-04-05T06:01:12.592Z,37.70
2019-04-05T06:03:43.558Z,37.60
2019-04-05T06:06:14.598Z,37.70
2019-04-05T06:08:45.820Z,37.70
2019-04-05T06:11:16.853Z,37.60
2019-04-05T06:13:47.715Z,37.50
2019-04-05T06:16:18.760Z,37.40
2019-04-05T06:18:49.766Z,37.30
2019-04-05T06:21:20.711Z,37.20
2019-04-05T06:23:52.192Z,37.20
2019-04-05T06:26:23.138Z,37.10
2019-04-05T06:28:54.959Z,37.00
2019-04-05T06:31:26.039Z,37.00
2019-04-05T06:33:56.926Z,36.90
2019-04-05T06:36:28.135Z,36.70
2019-04-05T06:38:59.094Z,36.70
2019-04-05T06:41:29.985Z,36.50
2019-04-05T06:44:01.142Z,36.40
2019-04-05T06:46:31.936Z,36.40
2019-04-05T06:49:02.723Z,36.40
2019-04-05T06:51:34.003Z,36.40
2019-04-05T06:54:05.074Z,36.40
2019-04-05T06:56:36.066Z,36.40
2019-04-05T06:59:07.585Z,36.40
2019-04-05T07:01:38.489Z,36.40
2019-04-05T07:04:09.625Z,36.40
2019-04-05T07:06:40.750Z,36.50
2019-04-05T07:09:11.553Z,36.50
2019-04-05T07:11:42.438Z,36.60
2019-04-05T07:14:13.850Z,36.70
2019-04-05T07:16:44.998Z,36.80
2019-04-05T07:19:16.000Z,36.90
2019-04-05T07:21:47.448Z,37.00
2019-04-05T07:24:18.536Z,37.00
2019-04-05T07:26:49.464Z,37.00
2019-04-05T07:29:20.678Z,36.90
2019-04-05T07:31:51.728Z,36.80
2019-04-05T07:34:22.526Z,36.70
2019-04-05T07:36:53.958Z,36.60
2019-04-05T07:39:24.919Z,36.50
2019-04-05T07:41:55.957Z,36.40
2019-04-05T07:44:27.018Z,36.30
2019-04-05T07:46:57.930Z,36.20
2019-04-05T07:49:28.737Z,36.10
2019-04-05T07:51:59.978Z,36.00
2019-04-05T07:54:30.874Z,35.90
2019-04-05T07:57:01.779Z,35.90
2019-04-05T07:59:32.870Z,35.80
2019-04-05T08:02:03.837Z,35.80
2019-04-05T08:04:34.746Z,35.70
2019-04-05T08:07:06.854Z,35.70
2019-04-05T08:09:39.322Z,35.70
2019-04-05T08:12:10.580Z,35.60
2019-04-05T08:14:42.713Z,35.60
2019-04-05T08:17:13.778Z,35.50
2019-04-05T08:19:44.805Z,35.40
2019-04-05T08:22:15.980Z,35.40
2019-04-05T08:24:46.681Z,35.40
2019-04-05T08:27:17.629Z,35.40
2019-04-05T08:29:48.671Z,35.30
2019-04-05T08:32:19.770Z,35.30
2019-04-05T08:34:50.785Z,35.30
2019-04-05T08:37:22.741Z,35.10
2019-04-05T08:39:53.899Z,34.90
2019-04-05T08:42:24.733Z,34.80
2019-04-05T08:44:56.141Z,34.50
2019-04-05T08:47:26.971Z,34.30
2019-04-05T08:49:57.817Z,34.10
2019-04-05T08:52:28.884Z,33.80
2019-04-05T08:55:00.057Z,33.70
2019-04-05T08:57:31.026Z,33.60
2019-04-05T09:00:01.897Z,33.40
2019-04-05T09:02:33.209Z,33.30
2019-04-05T09:05:04.285Z,33.20
2019-04-05T09:07:35.395Z,33.20
2019-04-05T09:10:07.930Z,33.10
2019-04-05T09:12:38.959Z,33.10
2019-04-05T09:15:10.113Z,33.10
2019-04-05T09:17:41.003Z,33.00
2019-04-05T09:20:12.189Z,32.90
2019-04-05T09:22:43.323Z,32.90
2019-04-05T09:25:14.340Z,32.90
2019-04-05T09:27:45.294Z,32.80
2019-04-05T09:30:16.615Z,32.70
2019-04-05T09:32:47.532Z,32.60
2019-04-05T09:35:18.523Z,32.50
2019-04-05T09:37:49.548Z,32.50
2019-04-05T09:40:21.238Z,32.40
2019-04-05T09:42:52.156Z,32.40
2019-04-05T09:45:23.496Z,32.30
2019-04-05T09:47:54.577Z,32.30
2019-04-05T09:50:25.601Z,32.40
2019-04-05T09:52:56.809Z,32.40
2019-04-05T09:55:27.613Z,32.40
2019-04-05T09:57:58.602Z,32.30
2019-04-05T10:00:29.858Z,32.20
2019-04-05T10:03:00.682Z,31.90
2019-04-05T10:05:31.760Z,31.40
2019-04-05T10:08:03.544Z,30.90
2019-04-05T10:10:34.667Z,30.30
2019-04-05T10:13:05.676Z,29.70
2019-04-05T10:15:36.888Z,29.20
2019-04-05T10:18:07.703Z,28.80
2019-04-05T10:20:39.054Z,28.50
2019-04-05T10:23:10.548Z,28.30
2019-04-05T10:25:43.757Z,28.20
2019-04-05T10:28:14.841Z,28.00
2019-04-05T10:30:45.877Z,28.00
2019-04-05T10:33:16.885Z,27.90
2019-04-05T10:35:47.959Z,27.90
2019-04-05T10:38:19.151Z,27.60
2019-04-05T10:40:50.115Z,27.40
2019-04-05T10:43:21.094Z,27.20
2019-04-05T10:45:52.175Z,26.90
2019-04-05T10:48:23.097Z,26.60
2019-04-05T10:50:54.375Z,26.40
2019-04-05T10:53:25.756Z,26.20
2019-04-05T10:55:56.789Z,26.10
2019-04-05T10:58:27.849Z,25.90
2019-04-05T11:00:58.938Z,25.90
2019-04-05T11:03:29.878Z,25.80
2019-04-05T11:06:00.901Z,25.70
2019-04-05T11:08:31.757Z,25.60
2019-04-05T11:11:02.546Z,25.60
2019-04-05T11:13:33.450Z,25.50
2019-04-05T11:16:04.874Z,25.50
2019-04-05T11:18:35.805Z,25.40
2019-04-05T11:21:06.834Z,25.40
2019-04-05T11:23:37.989Z,25.40
2019-04-05T11:26:08.964Z,25.30
2019-04-05T11:28:40.000Z,25.30
2019-04-05T11:31:11.170Z,25.20
2019-04-05T11:33:42.085Z,25.20
2019-04-05T11:36:13.720Z,25.20
2019-04-05T11:38:45.825Z,25.20
2019-04-05T11:41:17.282Z,25.20
2019-04-05T11:43:50.040Z,25.30
2019-04-05T11:46:21.392Z,25.30
2019-04-05T11:48:52.764Z,25.40
2019-04-05T11:51:23.449Z,25.40
2019-04-05T11:53:54.637Z,25.40
2019-04-05T11:56:25.580Z,25.40
2019-04-05T11:58:57.016Z,25.40
2019-04-05T12:01:29.605Z,25.50
2019-04-05T12:04:00.438Z,25.50
2019-04-05T12:06:31.161Z,25.60
2019-04-05T12:09:03.221Z,25.60
2019-04-05T12:11:34.100Z,25.60
2019-04-05T12:14:04.941Z,25.60
2019-04-05T12:16:36.543Z,25.60
2019-04-05T12:19:07.519Z,25.60
2019-04-05T12:21:38.465Z,25.60
2019-04-05T12:24:09.658Z,25.70
2019-04-05T12:26:42.644Z,25.60
2019-04-05T12:29:12.896Z,25.70
2019-04-05T12:31:44.049Z,25.70
2019-04-05T12:34:15.200Z,25.70
2019-04-05T12:36:47.389Z,25.70
2019-04-05T12:39:18.327Z,25.70
2019-04-05T12:41:49.713Z,25.80
2019-04-05T12:44:20.903Z,25.80
2019-04-05T12:46:51.925Z,25.80
2019-04-05T12:49:23.110Z,25.80
2019-04-05T12:51:53.852Z,25.80
2019-04-05T12:54:24.716Z,25.80
2019-04-05T12:56:57.900Z,25.90
2019-04-05T12:59:28.198Z,25.90
2019-04-05T13:01:59.761Z,25.90
2019-04-05T13:04:31.080Z,25.90
2019-04-05T13:07:01.836Z,25.90
2019-04-05T13:09:32.699Z,25.80
2019-04-05T13:12:03.988Z,25.90
2019-04-05T13:14:34.922Z,25.90
2019-04-05T13:17:05.921Z,25.90
2019-04-05T13:19:36.858Z,25.90
2019-04-05T13:22:07.714Z,25.90
2019-04-05T13:24:40.253Z,25.90
2019-04-05T13:27:11.721Z,25.90
2019-04-05T13:29:43.321Z,25.90
2019-04-05T13:32:16.950Z,25.90
2019-04-05T13:34:46.885Z,25.90
2019-04-05T13:37:20.492Z,25.90
2019-04-05T13:39:50.036Z,25.90
2019-04-05T13:42:21.307Z,25.90
2019-04-05T13:44:51.911Z,25.90
2019-04-05T13:47:22.885Z,25.90
2019-04-05T13:49:54.053Z,25.90
2019-04-05T13:52:25.195Z,25.90
2019-04-05T13:54:55.926Z,25.90
2019-04-05T13:57:28.492Z,25.90
2019-04-05T13:59:59.677Z,25.90
2019-04-05T14:02:30.664Z,25.90
2019-04-05T14:05:01.926Z,25.90
2019-04-05T14:07:34.180Z,25.90
2019-04-05T14:10:10.644Z,25.90
2019-04-05T14:12:40.098Z,25.90
2019-04-05T14:15:12.187Z,25.90
2019-04-05T14:17:44.833Z,25.90
2019-04-05T14:20:18.502Z,25.90
2019-04-05T14:22:50.773Z,25.90
2019-04-05T14:25:21.159Z,26.00
2019-04-05T14:27:52.214Z,26.00
2019-04-05T14:30:23.139Z,26.00
2019-04-05T14:32:55.671Z,25.90
2019-04-05T14:35:26.640Z,26.00
2019-04-05T14:37:57.468Z,26.00
2019-04-05T14:40:30.359Z,26.00
2019-04-05T14:43:00.868Z,26.10
2019-04-05T14:45:32.132Z,26.00
2019-04-05T14:48:03.322Z,26.10
2019-04-05T14:50:34.083Z,26.10
2019-04-05T14:53:05.140Z,26.10
2019-04-05T14:55:36.387Z,26.10
2019-04-05T14:58:10.254Z,26.10
2019-04-05T15:00:39.812Z,26.10
2019-04-05T15:03:10.884Z,26.10
2019-04-05T15:05:41.780Z,26.20
2019-04-05T15:08:12.704Z,26.20
2019-04-05T15:10:44.081Z,26.20
2019-04-05T15:13:15.249Z,26.20
2019-04-05T15:15:46.250Z,26.20
2019-04-05T15:18:19.565Z,26.20
2019-04-05T15:20:49.937Z,26.20
2019-04-05T15:23:20.763Z,26.30
2019-04-05T15:25:51.970Z,26.20
2019-04-05T15:28:24.609Z,26.20
2019-04-05T15:30:56.154Z,26.20
2019-04-05T15:33:30.532Z,26.20
2019-04-05T15:36:03.122Z,26.30
2019-04-05T15:38:33.608Z,26.30
2019-04-05T15:41:05.249Z,26.30
2019-04-05T15:43:36.254Z,26.30
2019-04-05T15:46:07.296Z,26.30
2019-04-05T15:48:38.407Z,26.30
2019-04-05T15:51:09.171Z,26.20
2019-04-05T15:53:40.081Z,26.30
2019-04-05T15:56:11.156Z,26.30
2019-04-05T15:58:42.092Z,26.20
2019-04-05T16:01:13.439Z,26.30
2019-04-05T16:03:44.779Z,26.30
2019-04-05T16:06:15.865Z,26.30
2019-04-05T16:08:46.561Z,26.20
2019-04-05T16:11:17.545Z,26.30
2019-04-05T16:13:48.905Z,26.20
2019-04-05T16:16:19.638Z,26.20
2019-04-05T16:18:50.505Z,26.20
2019-04-05T16:21:21.510Z,26.20
2019-04-05T16:23:52.552Z,26.20
2019-04-05T16:26:23.461Z,26.10
2019-04-05T16:28:54.368Z,26.10
2019-04-05T16:31:25.157Z,26.10
2019-04-05T16:33:56.197Z,26.10
2019-04-05T16:36:26.972Z,26.10
2019-04-05T16:38:58.029Z,26.10
2019-04-05T16:41:28.893Z,26.10
2019-04-05T16:43:59.917Z,26.10
2019-04-05T16:46:30.774Z,26.10
2019-04-05T16:49:01.973Z,26.10
2019-04-05T16:51:33.146Z,26.00
2019-04-05T16:54:05.059Z,26.00
2019-04-05T16:56:35.833Z,26.10
2019-04-05T16:59:07.548Z,26.00
2019-04-05T17:01:38.264Z,26.00
2019-04-05T17:04:09.211Z,25.90
2019-04-05T17:06:40.469Z,25.90
2019-04-05T17:09:11.673Z,25.90
2019-04-05T17:11:42.523Z,25.90
2019-04-05T17:14:13.684Z,25.90
2019-04-05T17:16:44.547Z,25.90
2019-04-05T17:19:15.399Z,25.90
2019-04-05T17:21:46.606Z,25.90
2019-04-05T17:24:17.653Z,25.80
2019-04-05T17:26:48.415Z,25.80
2019-04-05T17:29:19.398Z,25.80
2019-04-05T17:31:50.292Z,25.80
2019-04-05T17:34:21.163Z,25.70
2019-04-05T17:36:52.084Z,25.70
2019-04-05T17:39:23.113Z,25.70
2019-04-05T17:41:53.883Z,25.70
2019-04-05T17:44:25.015Z,25.70
2019-04-05T17:46:55.939Z,25.70
2019-04-05T17:49:26.872Z,25.70
2019-04-05T17:51:57.792Z,25.70
2019-04-05T17:54:28.714Z,25.60
2019-04-05T17:56:59.854Z,25.60
2019-04-05T17:59:31.102Z,25.60
2019-04-05T18:02:01.978Z,25.60
2019-04-05T18:04:32.797Z,25.50
2019-04-05T18:07:03.809Z,25.50
2019-04-05T18:09:34.710Z,25.50
2019-04-05T18:12:06.314Z,25.50
2019-04-05T18:14:37.328Z,25.50
2019-04-05T18:17:08.220Z,25.50
2019-04-05T18:19:39.054Z,25.50
2019-04-05T18:22:09.835Z,25.50
2019-04-05T18:24:40.824Z,25.40
2019-04-05T18:27:11.713Z,25.40
2019-04-05T18:29:42.662Z,25.40
2019-04-05T18:32:14.174Z,25.30
2019-04-05T18:34:45.160Z,25.30
2019-04-05T18:37:16.043Z,25.30
2019-04-05T18:39:47.004Z,25.30
2019-04-05T18:42:17.798Z,25.20
2019-04-05T18:44:48.935Z,25.20
2019-04-05T18:47:22.691Z,25.20
2019-04-05T18:50:02.817Z,25.20
2019-04-05T18:52:26.233Z,25.20
2019-04-05T18:54:56.951Z,25.10
2019-04-05T18:57:28.046Z,25.10
2019-04-05T18:59:59.207Z,25.10
2019-04-05T19:02:30.025Z,25.10
2019-04-05T19:05:01.471Z,25.10
2019-04-05T19:07:32.562Z,25.10
2019-04-05T19:10:03.494Z,25.10
2019-04-05T19:12:34.694Z,25.10
2019-04-05T19:15:07.107Z,25.00
2019-04-05T19:17:38.094Z,25.00
2019-04-05T19:20:09.367Z,24.90
2019-04-05T19:22:40.135Z,24.90
2019-04-05T19:25:11.389Z,24.90
2019-04-05T19:27:42.579Z,24.80
2019-04-05T19:50:31.714Z,24.80
2019-04-05T19:53:02.738Z,24.80
2019-04-05T19:55:33.648Z,24.80
2019-04-05T19:58:04.570Z,24.80
2019-04-05T20:00:35.734Z,24.80
2019-04-05T20:03:06.630Z,24.80
2019-04-05T20:05:37.300Z,24.80
2019-04-05T20:08:08.452Z,24.80
2019-04-05T20:10:39.507Z,24.70
2019-04-05T20:13:10.283Z,24.70
2019-04-05T20:15:41.255Z,24.80
2019-04-05T20:18:12.344Z,24.70
2019-04-05T20:20:43.435Z,24.70
2019-04-05T20:23:14.572Z,24.70
2019-04-05T20:25:45.507Z,24.70
2019-04-05T20:28:16.413Z,24.70
2019-04-05T20:30:47.511Z,24.70
2019-04-05T20:33:18.192Z,24.70
2019-04-05T20:35:49.228Z,24.70
2019-04-05T20:38:20.200Z,24.70
2019-04-05T20:40:51.028Z,24.70
2019-04-05T20:43:21.873Z,24.70
2019-04-05T20:45:52.813Z,24.70
2019-04-05T20:48:23.765Z,24.70
2019-04-05T20:50:54.553Z,24.70
2019-04-05T20:53:25.511Z,24.70
2019-04-05T20:55:56.454Z,24.70
2019-04-05T20:58:27.025Z,24.70
2019-04-05T21:00:59.354Z,24.80
2019-04-05T21:03:30.356Z,24.70
2019-04-05T21:06:01.440Z,24.80
2019-04-05T21:08:32.608Z,24.70
2019-04-05T21:11:03.592Z,24.80
2019-04-05T21:13:34.717Z,24.70
2019-04-05T21:16:05.830Z,24.80
2019-04-05T21:18:36.990Z,24.80
2019-04-05T21:21:07.879Z,24.80
2019-04-05T21:23:39.092Z,24.80
2019-04-05T21:26:10.293Z,24.80
2019-04-05T21:28:41.216Z,24.80
2019-04-05T21:31:12.216Z,24.80
2019-04-05T21:33:43.303Z,24.80
2019-04-05T21:36:14.051Z,24.80
2019-04-05T21:38:45.426Z,24.80
2019-04-05T21:41:16.306Z,24.80
2019-04-05T21:43:47.146Z,24.80
2019-04-05T21:46:18.180Z,24.80
2019-04-05T21:48:48.997Z,24.80
2019-04-05T21:51:19.950Z,24.80
2019-04-05T21:53:51.123Z,24.80
2019-04-05T21:56:22.179Z,24.80
2019-04-05T21:58:53.203Z,24.80
2019-04-05T22:01:24.771Z,24.80
2019-04-05T22:03:56.138Z,24.80
2019-04-05T22:06:27.105Z,24.80
2019-04-05T22:08:58.198Z,24.80
2019-04-05T22:11:29.001Z,24.80
2019-04-05T22:14:00.059Z,24.80
2019-04-05T22:16:31.034Z,24.80
2019-04-05T22:19:01.940Z,24.80
2019-04-05T22:21:32.794Z,24.80
2019-04-05T22:24:03.708Z,24.80
2019-04-05T22:26:34.557Z,24.80
2019-04-05T22:29:05.651Z,24.70
2019-04-05T22:31:36.540Z,24.80
2019-04-05T22:34:07.457Z,24.80
2019-04-05T22:36:38.324Z,24.80
2019-04-05T22:39:09.417Z,24.80
2019-04-05T22:41:40.216Z,24.80
2019-04-05T22:44:11.474Z,24.80
2019-04-05T22:46:42.167Z,24.80
2019-04-05T22:49:12.986Z,24.80
2019-04-05T22:51:43.917Z,24.80
2019-04-05T22:54:14.860Z,24.80
2019-04-05T22:56:45.877Z,24.80
2019-04-05T22:59:17.153Z,24.80
2019-04-05T23:01:48.321Z,24.80
2019-04-05T23:04:19.129Z,24.70
2019-04-05T23:06:50.319Z,24.80
2019-04-05T23:09:21.549Z,24.70
2019-04-05T23:11:52.559Z,24.70
2019-04-05T23:14:23.489Z,24.70
2019-04-05T23:16:54.239Z,24.70
2019-04-05T23:19:25.159Z,24.70
2019-04-05T23:21:55.907Z,24.70
2019-04-05T23:24:26.615Z,24.70
2019-04-05T23:26:57.778Z,24.80
2019-04-05T23:29:28.641Z,24.70
2019-04-05T23:31:59.713Z,24.80
2019-04-05T23:34:30.616Z,24.80
2019-04-05T23:37:01.611Z,24.80
2019-04-05T23:39:32.508Z,24.80
2019-04-05T23:42:03.600Z,24.80
2019-04-05T23:44:34.502Z,24.90
2019-04-05T23:47:05.989Z,24.90
2019-04-05T23:49:37.219Z,24.90
2019-04-05T23:52:08.342Z,25.00
2019-04-05T23:54:39.294Z,25.00
2019-04-05T23:57:10.938Z,25.10
2019-04-05T23:59:42.627Z,25.10
